Time;durP1;ratioP1;P1;durP2;ratioP2;P2;SDS_P1;SDS_P2;PMS_P1;PMS_P2;Temp;Humidity;BMP_temperature;BMP_pressure;BME280_temperature;BME280_humidity;BME280_pressure;Samples;Min_cycle;Max_cycle;Signal;HPM_P1;HPM_P2
2021/06/15 00:00:40;;;;;;;5.88;3.10;;;;;;;15.01;76.37;98998.09;4995122;28;20113;-75
2021/06/15 00:03:05;;;;;;;6.65;2.80;;;;;;;14.95;76.37;98974.44;4994355;28;20049;-76
2021/06/15 00:05:30;;;;;;;7.65;3.05;;;;;;;14.98;76.06;98981.34;4993202;28;20393;-74
2021/06/15 00:07:56;;;;;;;4.35;2.90;;;;;;;15.04;76.17;98988.63;4995314;28;20088;-74
2021/06/15 00:10:23;;;;;;;4.32;2.80;;;;;;;15.04;76.28;98989.44;4995456;28;20018;-74
2021/06/15 00:12:50;;;;;;;6.78;2.78;;;;;;;15.04;75.44;98994.91;4990028;28;20370;-76
2021/06/15 00:15:16;;;;;;;5.43;3.03;;;;;;;14.85;76.72;99004.09;4993544;28;20563;-75
2021/06/15 00:17:42;;;;;;;4.25;2.75;;;;;;;14.85;76.89;98991.31;4995376;28;20030;-75
2021/06/15 00:20:09;;;;;;;5.75;2.88;;;;;;;14.68;76.61;98960.31;4993562;28;20014;-75
2021/06/15 00:22:34;;;;;;;4.43;3.20;;;;;;;14.71;76.66;98969.91;4993954;28;20451;-75
2021/06/15 00:25:00;;;;;;;4.97;3.35;;;;;;;14.65;77.39;98988.00;4994636;28;20026;-75
2021/06/15 00:27:28;;;;;;;7.53;3.08;;;;;;;14.33;77.57;98954.53;4995155;28;20472;-74
2021/06/15 00:29:53;;;;;;;4.13;3.35;;;;;;;14.36;77.70;98974.00;4993857;28;20026;-74
2021/06/15 00:32:19;;;;;;;4.90;3.03;;;;;;;14.30;78.21;98946.84;4993811;28;20023;-75
2021/06/15 00:34:45;;;;;;;6.10;3.22;;;;;;;14.37;77.75;98983.81;4993400;28;20084;-75
2021/06/15 00:37:10;;;;;;;4.65;3.17;;;;;;;14.29;78.40;98961.50;4995157;28;20034;-75
2021/06/15 00:39:36;;;;;;;10.73;4.00;;;;;;;14.10;78.65;98947.03;4995592;28;20029;-74
2021/06/15 00:42:01;;;;;;;7.75;4.07;;;;;;;14.29;78.65;98983.28;4993653;28;20031;-75
2021/06/15 00:44:27;;;;;;;7.03;3.58;;;;;;;13.98;78.59;98945.00;4994179;28;20101;-76
2021/06/15 00:46:52;;;;;;;5.25;3.40;;;;;;;14.29;78.91;98983.28;4994725;28;20562;-75
2021/06/15 00:49:24;;;;;;;6.70;3.25;;;;;;;14.11;78.78;98967.72;4994493;28;20062;-75
2021/06/15 00:51:50;;;;;;;6.57;3.00;;;;;;;14.03;78.97;98957.97;4993304;28;20030;-75
2021/06/15 00:54:15;;;;;;;6.65;3.33;;;;;;;13.94;79.24;98962.03;4994022;28;20037;-75
2021/06/15 00:56:41;;;;;;;6.18;3.35;;;;;;;13.89;79.62;98979.00;4994677;28;20026;-75
2021/06/15 00:59:06;;;;;;;4.05;3.10;;;;;;;13.69;80.20;98962.81;4994806;28;20019;-75
2021/06/15 01:01:31;;;;;;;9.73;3.58;;;;;;;13.64;80.23;98978.94;4994676;28;20486;-75
2021/06/15 01:03:57;;;;;;;6.63;3.30;;;;;;;13.47;80.08;98964.22;4993829;28;20030;-75
2021/06/15 01:06:37;;;;;;;6.32;3.22;;;;;;;13.69;81.13;98970.13;4992174;28;20571;-74
2021/06/15 01:09:09;;;;;;;10.35;3.30;;;;;;;13.77;80.43;98981.56;4993414;28;20053;-75
2021/06/15 01:11:50;;;;;;;6.97;3.00;;;;;;;13.65;81.05;98980.63;4993552;28;20084;-75
2021/06/15 01:14:28;;;;;;;5.75;3.28;;;;;;;13.69;81.01;98987.28;4991407;28;20030;-75
2021/06/15 01:16:59;;;;;;;8.13;3.20;;;;;;;13.66;80.69;98985.00;4993931;28;20062;-75
2021/06/15 01:19:59;;;;;;;5.68;3.30;;;;;;;13.54;80.75;98978.59;4992631;28;20022;-75
2021/06/15 01:22:24;;;;;;;;;;;;;;;13.53;80.80;98982.38;4988773;28;20456;-75
2021/06/15 01:25:12;;;;;;;6.77;2.97;;;;;;;13.54;81.33;98976.69;4991688;28;19948;-75
2021/06/15 01:28:12;;;;;;;5.20;3.03;;;;;;;13.64;80.93;98975.41;4992646;28;20679;-75
2021/06/15 01:30:47;;;;;;;7.13;2.78;;;;;;;13.57;80.23;98956.41;4917208;29;20122;-75
2021/06/15 01:33:14;;;;;;;4.10;2.65;;;;;;;13.43;80.07;98961.09;4972521;28;20053;-74
2021/06/15 01:35:40;;;;;;;6.03;3.13;;;;;;;13.20;80.69;98953.44;4992464;28;20060;-75
2021/06/15 01:38:11;;;;;;;10.73;3.30;;;;;;;13.23;81.11;98958.47;4992654;28;20026;-75
2021/06/15 01:40:52;;;;;;;6.60;3.63;;;;;;;13.18;81.97;98965.56;4992184;28;20589;-75
2021/06/15 01:43:30;;;;;;;5.47;3.35;;;;;;;13.24;82.22;98978.31;4991261;28;20034;-75
2021/06/15 01:45:57;;;;;;;5.50;3.40;;;;;;;13.10;81.40;98964.78;4991177;28;20026;-74
2021/06/15 01:48:34;;;;;;;7.47;3.30;;;;;;;12.75;81.48;98936.31;4991687;28;20026;-75
2021/06/15 01:51:02;;;;;;;6.63;3.50;;;;;;;12.78;81.49;98961.13;4993053;28;20492;-73
2021/06/15 01:53:30;;;;;;;8.43;3.42;;;;;;;12.66;81.21;98936.53;4992057;28;20088;-75
2021/06/15 01:56:01;;;;;;;9.63;3.55;;;;;;;12.91;82.89;98954.81;4993342;28;20056;-74
2021/06/15 01:58:30;;;;;;;4.82;3.65;;;;;;;13.12;82.88;98956.41;4993241;28;20023;-75
2021/06/15 02:00:56;;;;;;;5.63;3.35;;;;;;;13.04;81.15;98937.66;4990706;28;20033;-75
2021/06/15 02:03:21;;;;;;;11.82;2.97;;;;;;;12.97;81.58;98925.97;4992967;28;20092;-75
2021/06/15 02:05:51;;;;;;;5.97;3.30;;;;;;;12.94;81.36;98927.22;4991723;28;20030;-75
2021/06/15 02:08:23;;;;;;;5.25;3.17;;;;;;;12.91;80.20;98943.97;4993347;28;20026;-75
2021/06/15 02:10:49;;;;;;;8.63;3.80;;;;;;;12.90;81.50;98954.00;4992135;28;20029;-75
2021/06/15 02:13:15;;;;;;;4.95;3.17;;;;;;;12.63;82.71;98930.72;4992650;28;20052;-75
2021/06/15 02:15:42;;;;;;;5.70;3.42;;;;;;;12.70;83.12;98953.22;4991914;28;20148;-75
2021/06/15 02:18:09;;;;;;;6.30;3.70;;;;;;;12.63;82.46;98953.25;4995380;28;20018;-77
2021/06/15 02:20:40;;;;;;;5.43;2.80;;;;;;;12.46;82.81;98946.59;4992638;28;20041;-74
2021/06/15 02:23:07;;;;;;;6.22;3.53;;;;;;;12.42;82.84;98932.66;4992788;28;20037;-75
2021/06/15 02:25:36;;;;;;;5.20;3.20;;;;;;;12.34;82.97;98927.44;4993069;28;20390;-75
2021/06/15 02:28:03;;;;;;;5.20;3.53;;;;;;;12.52;83.31;98964.75;4993152;28;20389;-75
2021/06/15 02:30:30;;;;;;;10.63;3.63;;;;;;;12.33;83.79;98936.63;4993119;28;20109;-76
2021/06/15 02:33:00;;;;;;;6.00;3.83;;;;;;;12.38;84.60;98939.53;4992261;28;20023;-75
2021/06/15 02:35:27;;;;;;;8.15;3.90;;;;;;;12.41;84.21;98949.94;4981002;28;20037;-75
2021/06/15 02:38:13;;;;;;;6.20;3.92;;;;;;;12.64;84.46;98964.94;4991981;28;20027;-75
2021/06/15 02:40:40;;;;;;;6.95;3.92;;;;;;;12.60;84.48;98952.84;4992077;28;20050;-75
2021/06/15 02:43:06;;;;;;;8.60;3.60;;;;;;;12.47;83.15;98950.97;4992758;28;20022;-75
2021/06/15 02:45:33;;;;;;;14.18;3.60;;;;;;;12.48;82.25;98955.38;4992749;28;20026;-75
2021/06/15 02:48:03;;;;;;;5.15;3.10;;;;;;;12.40;82.55;98956.44;4991449;28;20026;-76
2021/06/15 02:50:30;;;;;;;6.57;3.58;;;;;;;12.15;83.29;98933.72;4974458;28;20077;-75
2021/06/15 02:53:07;;;;;;;10.20;3.70;;;;;;;12.11;83.23;98927.06;4991831;28;20022;-75
2021/06/15 02:55:56;;;;;;;5.38;3.40;;;;;;;12.08;83.43;98933.75;4991606;28;20030;-75
2021/06/15 02:58:22;;;;;;;5.10;3.38;;;;;;;12.25;83.65;98958.53;4992713;28;20030;-74
2021/06/15 03:00:47;;;;;;;8.35;4.15;;;;;;;12.18;84.48;98955.00;4989951;28;20033;-74
2021/06/15 03:03:13;;;;;;;9.82;4.05;;;;;;;12.04;85.06;98936.03;4993155;28;20030;-75
2021/06/15 03:05:38;;;;;;;8.45;4.13;;;;;;;12.06;85.36;98950.22;4990832;28;20027;-75
2021/06/15 03:08:04;;;;;;;7.22;4.32;;;;;;;11.86;84.74;98938.53;5006808;28;20158;-75
2021/06/15 03:10:29;;;;;;;11.38;4.07;;;;;;;11.68;84.60;98914.72;4990456;28;20034;-75
2021/06/15 03:13:09;;;;;;;6.30;4.07;;;;;;;12.03;85.75;98942.50;4991498;28;20034;-75
2021/06/15 03:15:42;;;;;;;6.72;4.00;;;;;;;12.05;84.14;98961.25;4991497;28;20033;-75
2021/06/15 03:18:25;;;;;;;8.35;3.90;;;;;;;12.03;85.32;98964.19;4991169;28;20030;-75
2021/06/15 03:20:54;;;;;;;8.52;4.03;;;;;;;11.99;85.76;98943.94;4986774;28;20023;-75
2021/06/15 03:23:51;;;;;;;8.98;4.30;;;;;;;12.04;86.09;98951.47;4990609;28;20101;-76
2021/06/15 03:26:23;;;;;;;6.03;4.38;;;;;;;11.91;85.56;98944.16;4990246;28;20030;-75
2021/06/15 03:28:54;;;;;;;5.10;3.40;;;;;;;12.04;85.34;98962.31;4989819;28;20030;-75
2021/06/15 03:31:20;;;;;;;7.10;4.00;;;;;;;11.99;84.77;98946.66;4990121;28;20030;-75
2021/06/15 03:33:49;;;;;;;5.38;3.72;;;;;;;12.18;84.32;98968.56;4972374;28;20038;-75
2021/06/15 03:36:16;;;;;;;;;;;;;;;12.17;83.72;98964.19;4991187;28;20027;-75
2021/06/15 03:38:43;;;;;;;8.98;4.40;;;;;;;12.14;84.10;98948.34;4983531;28;19996;-75
2021/06/15 03:41:10;;;;;;;8.07;4.60;;;;;;;12.12;83.17;98945.81;4995285;28;20512;-75
2021/06/15 03:43:36;;;;;;;5.30;3.53;;;;;;;12.21;82.98;98970.88;4994733;28;20038;-75
2021/06/15 03:46:03;;;;;;;8.85;3.95;;;;;;;12.18;83.23;98955.00;4993000;28;20366;-75
2021/06/15 03:48:30;;;;;;;5.32;4.07;;;;;;;12.37;83.53;98975.03;4994692;28;20420;-75
2021/06/15 03:50:58;;;;;;;7.47;4.25;;;;;;;12.39;83.35;98972.91;4993347;28;20383;-67
2021/06/15 03:53:29;;;;;;;6.07;4.28;;;;;;;12.27;82.90;98948.31;5003913;28;20077;-70
2021/06/15 03:55:57;;;;;;;7.50;4.82;;;;;;;12.43;82.87;98969.56;4990305;28;20351;-68
2021/06/15 03:58:22;;;;;;;5.85;4.22;;;;;;;12.44;83.21;98949.56;4986448;28;20034;-71
2021/06/15 04:00:50;;;;;;;6.80;4.57;;;;;;;12.46;82.96;98941.19;4991677;28;20022;-73
2021/06/15 04:03:16;;;;;;;7.38;4.10;;;;;;;12.67;82.54;98973.50;5000856;28;20030;-70
2021/06/15 04:05:43;;;;;;;10.40;4.40;;;;;;;12.77;82.72;98981.19;4997169;28;20022;-69
2021/06/15 04:08:15;;;;;;;11.88;4.47;;;;;;;12.66;81.90;98946.56;4994900;28;20037;-74
2021/06/15 04:10:44;;;;;;;8.52;4.88;;;;;;;12.74;81.73;98959.09;4989830;28;20018;-73
2021/06/15 04:13:10;;;;;;;8.25;4.78;;;;;;;12.86;80.85;98963.63;4992180;28;20480;-72
2021/06/15 04:15:37;;;;;;;12.50;4.68;;;;;;;12.82;81.49;98959.66;4994148;28;20034;-72
2021/06/15 04:18:05;;;;;;;9.68;4.93;;;;;;;12.96;81.75;98978.63;4994770;28;20029;-75
2021/06/15 04:20:35;;;;;;;8.07;4.53;;;;;;;13.06;80.54;98971.69;4994850;28;20493;-68
2021/06/15 04:23:03;;;;;;;7.18;4.30;;;;;;;13.05;79.91;98977.34;4993091;28;20038;-69
2021/06/15 04:25:31;;;;;;;8.73;4.00;;;;;;;13.09;80.13;98984.00;4993735;28;20037;-65
2021/06/15 04:27:57;;;;;;;4.90;3.78;;;;;;;12.99;80.30;98957.28;4993278;28;20061;-65
2021/06/15 04:30:26;;;;;;;8.90;4.50;;;;;;;13.12;80.22;98968.09;4994705;28;20461;-65
2021/06/15 04:32:57;;;;;;;10.95;4.40;;;;;;;13.26;80.57;98973.50;4993847;28;20034;-61
2021/06/15 04:35:27;;;;;;;9.57;4.78;;;;;;;13.32;80.36;98986.25;4992928;28;20061;-66
2021/06/15 04:37:55;;;;;;;6.03;4.88;;;;;;;13.46;80.21;98987.00;4994386;28;20030;-67
2021/06/15 04:40:39;;;;;;;9.55;4.20;;;;;;;13.66;79.86;98979.56;4991869;28;20542;-68
2021/06/15 04:43:27;;;;;;;7.57;4.50;;;;;;;13.89;78.07;98989.06;4993111;28;20042;-67
2021/06/15 04:45:56;;;;;;;5.22;4.38;;;;;;;13.95;77.80;98983.53;4992865;28;20384;-69
2021/06/15 04:48:31;;;;;;;6.28;3.95;;;;;;;14.24;76.84;98998.38;4981484;28;20943;-70
2021/06/15 04:51:01;;;;;;;14.02;4.57;;;;;;;14.29;76.36;98995.00;4989120;28;20540;-60
2021/06/15 04:53:35;;;;;;;9.50;4.60;;;;;;;14.23;75.99;98977.69;4991451;28;20101;-67
2021/06/15 04:56:01;;;;;;;9.05;4.85;;;;;;;14.64;75.81;98991.75;4998490;28;20034;-69
2021/06/15 04:58:30;;;;;;;11.90;4.80;;;;;;;14.77;75.85;98998.97;4994099;28;20477;-65
2021/06/15 05:00:57;;;;;;;8.02;4.53;;;;;;;14.70;74.96;98969.09;4993266;28;20134;-68
2021/06/15 05:03:22;;;;;;;9.40;4.22;;;;;;;15.06;74.77;99009.13;4992998;28;20105;-66
2021/06/15 05:05:49;;;;;;;7.65;4.90;;;;;;;15.28;74.11;98992.31;4992959;28;20129;-64
2021/06/15 05:08:20;;;;;;;8.05;4.13;;;;;;;15.47;72.85;99001.28;4994255;28;20026;-63
2021/06/15 05:10:45;;;;;;;8.55;4.55;;;;;;;15.65;72.60;99006.69;4993722;28;20114;-65
2021/06/15 05:13:12;;;;;;;6.32;3.58;;;;;;;15.84;71.96;99004.75;4992017;28;20097;-70
2021/06/15 05:15:42;;;;;;;16.08;4.45;;;;;;;15.86;71.78;98980.81;4996877;28;20022;-70
2021/06/15 05:18:09;;;;;;;6.50;4.45;;;;;;;16.18;70.72;98999.63;4996118;28;21237;-63
2021/06/15 05:20:35;;;;;;;11.65;5.30;;;;;;;16.22;70.24;99011.75;4992997;28;20074;-68
2021/06/15 05:23:05;;;;;;;6.93;4.13;;;;;;;16.40;69.36;98992.53;4989663;28;20046;-67
2021/06/15 05:25:31;;;;;;;6.65;3.72;;;;;;;16.44;70.23;98977.31;4990271;28;20042;-68
2021/06/15 05:27:57;;;;;;;7.47;4.10;;;;;;;16.80;69.93;99000.03;4992822;28;20050;-67
2021/06/15 05:30:23;;;;;;;6.32;4.05;;;;;;;16.99;69.12;99003.44;4993621;28;20034;-71
2021/06/15 05:32:49;;;;;;;10.10;4.13;;;;;;;17.27;67.74;99007.34;4991474;28;20031;-68
2021/06/15 05:35:14;;;;;;;10.88;4.30;;;;;;;17.29;67.29;99011.47;4992898;28;20033;-71
2021/06/15 05:37:41;;;;;;;9.90;4.32;;;;;;;17.49;66.16;99002.84;4992211;28;20026;-69
2021/06/15 05:40:06;;;;;;;9.35;4.70;;;;;;;17.66;65.29;99002.91;4991237;28;20105;-65
2021/06/15 05:42:32;;;;;;;10.27;5.10;;;;;;;17.63;64.86;98980.66;4991735;28;20480;-69
2021/06/15 05:44:57;;;;;;;7.05;4.85;;;;;;;17.90;64.42;98986.41;4990780;28;20041;-70
2021/06/15 05:47:22;;;;;;;8.35;4.05;;;;;;;18.14;64.33;98987.09;4992488;28;20496;-66
2021/06/15 05:49:48;;;;;;;5.38;3.65;;;;;;;18.51;65.14;99003.00;4990764;28;20097;-72
2021/06/15 05:52:13;;;;;;;7.35;4.40;;;;;;;18.78;65.21;99000.44;4991655;28;20034;-70
2021/06/15 05:54:39;;;;;;;7.57;3.90;;;;;;;18.90;65.36;99009.38;4988702;28;20396;-70
2021/06/15 05:57:05;;;;;;;7.85;3.55;;;;;;;19.00;64.38;99005.97;4989732;28;20101;-74
2021/06/15 05:59:31;;;;;;;4.82;3.30;;;;;;;19.09;61.93;99000.84;4987132;28;20034;-73
2021/06/15 06:01:57;;;;;;;6.20;3.10;;;;;;;19.39;61.32;98995.78;4992524;28;20029;-73
2021/06/15 06:04:25;;;;;;;7.80;3.20;;;;;;;19.58;61.47;98984.44;4992065;28;20508;-73
2021/06/15 06:09:39;;;;;;;9.13;3.38;;;;;;;19.84;60.74;98991.88;4992001;28;20030;-71
2021/06/15 06:12:07;;;;;;;8.32;3.35;;;;;;;20.23;60.11;98985.38;4991535;28;20476;-74
2021/06/15 06:14:32;;;;;;;6.93;3.30;;;;;;;20.44;57.14;99003.69;4992171;28;20165;-67
2021/06/15 06:16:58;;;;;;;5.50;3.08;;;;;;;20.55;55.64;98999.94;4992277;28;20109;-73
2021/06/15 06:19:23;;;;;;;6.93;3.10;;;;;;;20.57;55.39;98986.78;4991988;28;20099;-70
2021/06/15 06:21:50;;;;;;;5.55;3.28;;;;;;;20.50;55.57;98990.81;4992316;28;20388;-66
2021/06/15 06:24:17;;;;;;;3.92;2.72;;;;;;;20.97;55.30;99007.38;4983776;28;20491;-66
2021/06/15 06:26:43;;;;;;;8.98;3.20;;;;;;;21.22;55.66;99020.44;4992203;28;20026;-66
2021/06/15 06:29:08;;;;;;;7.50;2.75;;;;;;;21.62;54.96;99018.97;4991568;28;20041;-66
2021/06/15 06:31:34;;;;;;;5.57;2.95;;;;;;;22.15;54.42;99015.22;4992293;28;20062;-64
2021/06/15 06:33:59;;;;;;;4.10;2.90;;;;;;;22.64;53.34;99003.69;4991273;28;20540;-66
2021/06/15 06:36:25;;;;;;;3.50;2.42;;;;;;;23.16;52.51;99010.75;4986840;28;20034;-65
2021/06/15 06:38:52;;;;;;;6.28;3.50;;;;;;;23.37;50.28;99012.34;4984901;28;20022;-66
2021/06/15 06:41:18;;;;;;;5.68;3.05;;;;;;;23.88;51.17;99018.75;4989145;28;20022;-73
2021/06/15 06:43:44;;;;;;;5.25;3.17;;;;;;;24.00;50.78;98989.66;4992531;28;20029;-70
2021/06/15 06:46:09;;;;;;;8.00;2.72;;;;;;;24.54;49.61;99006.41;4990797;28;20077;-72
2021/06/15 06:48:35;;;;;;;6.50;3.05;;;;;;;25.00;48.67;99001.25;4990358;28;20026;-73
2021/06/15 06:51:00;;;;;;;4.95;2.85;;;;;;;25.73;47.55;99002.03;4989848;28;20034;-67
2021/06/15 06:53:26;;;;;;;5.53;2.65;;;;;;;26.24;45.58;99006.84;4990670;28;20026;-66
2021/06/15 06:55:52;;;;;;;5.78;2.60;;;;;;;26.99;44.34;98996.69;4992415;28;20031;-66
2021/06/15 06:58:17;;;;;;;4.78;2.10;;;;;;;27.25;43.10;98999.81;4979790;28;20026;-66
2021/06/15 07:00:42;;;;;;;4.47;2.05;;;;;;;28.32;41.70;98989.09;4982926;28;20038;-66
2021/06/15 07:03:08;;;;;;;3.72;2.20;;;;;;;28.62;41.14;98981.13;4992319;28;20026;-67
2021/06/15 07:05:33;;;;;;;5.03;2.15;;;;;;;29.95;38.49;98991.31;4985020;28;20030;-66
2021/06/15 07:07:59;;;;;;;6.97;2.28;;;;;;;30.99;36.58;98988.41;4989474;28;20050;-66
2021/06/15 07:10:24;;;;;;;5.88;1.85;;;;;;;31.97;35.02;98985.59;4985608;28;20054;-65
2021/06/15 07:12:50;;;;;;;4.10;2.15;;;;;;;32.95;32.89;98990.75;4988412;28;20089;-69
2021/06/15 07:15:16;;;;;;;4.15;1.73;;;;;;;33.91;31.46;98978.25;4990728;28;20034;-71
2021/06/15 07:17:42;;;;;;;3.47;1.63;;;;;;;35.17;29.58;98980.63;4991977;28;20124;-74
2021/06/15 07:20:08;;;;;;;6.18;2.28;;;;;;;36.11;28.10;98961.13;4997810;28;20031;-70
2021/06/15 07:22:34;;;;;;;4.72;1.75;;;;;;;36.98;24.82;98981.31;5003144;28;20060;-69
2021/06/15 07:25:01;;;;;;;6.93;2.20;;;;;;;36.46;26.09;98979.91;4994759;28;20026;-73
2021/06/15 07:27:26;;;;;;;3.38;1.80;;;;;;;36.66;26.64;98958.19;5002858;28;20040;-72
2021/06/15 07:29:51;;;;;;;2.80;1.60;;;;;;;37.68;23.75;98963.97;4994831;28;20477;-69
2021/06/15 07:32:17;;;;;;;5.78;1.80;;;;;;;37.49;24.17;98978.97;5004823;28;20044;-71
2021/06/15 07:34:42;;;;;;;5.32;1.80;;;;;;;37.41;24.92;98967.94;4995390;28;20439;-70
2021/06/15 07:37:07;;;;;;;4.68;1.92;;;;;;;38.34;23.91;98978.56;4996339;28;20117;-70
2021/06/15 07:39:33;;;;;;;6.68;1.67;;;;;;;38.30;22.13;98965.59;4997136;28;20113;-74
2021/06/15 07:41:59;;;;;;;4.95;1.80;;;;;;;36.90;23.95;98979.56;4996848;28;20065;-71
2021/06/15 07:44:25;;;;;;;4.05;1.33;;;;;;;37.80;23.42;98987.50;4997231;28;20416;-77
2021/06/15 07:46:50;;;;;;;4.85;1.77;;;;;;;38.02;22.92;98966.03;4997158;28;20030;-75
2021/06/15 07:49:15;;;;;;;2.47;1.33;;;;;;;38.87;22.29;98976.72;4994770;28;20113;-72
2021/06/15 07:51:41;;;;;;;3.53;1.50;;;;;;;40.13;20.39;98979.31;4996847;28;20395;-72
2021/06/15 07:54:06;;;;;;;6.65;1.38;;;;;;;39.97;21.04;98979.66;4993831;28;20120;-75
2021/06/15 07:56:32;;;;;;;3.60;1.60;;;;;;;37.47;22.29;98989.03;4992519;28;20034;-72
2021/06/15 07:58:58;;;;;;;3.45;1.10;;;;;;;37.97;22.21;98986.19;4993996;28;20130;-71
2021/06/15 08:01:23;;;;;;;2.22;1.10;;;;;;;39.51;21.85;98976.50;4997473;28;20398;-69
2021/06/15 08:03:48;;;;;;;4.22;1.55;;;;;;;38.92;22.28;98970.75;4994993;28;20030;-74
2021/06/15 08:06:14;;;;;;;2.63;1.52;;;;;;;39.70;22.44;98973.41;4994554;28;20057;-70
2021/06/15 08:08:40;;;;;;;4.13;1.42;;;;;;;39.43;21.64;98970.81;4990933;28;20480;-66
2021/06/15 08:11:05;;;;;;;3.33;1.40;;;;;;;40.19;22.15;98966.38;4989385;28;20030;-67
2021/06/15 08:13:31;;;;;;;2.42;1.33;;;;;;;39.30;23.11;98968.63;4994911;28;20489;-65
2021/06/15 08:15:56;;;;;;;4.97;1.80;;;;;;;39.50;23.65;98969.22;4993021;28;20030;-66
2021/06/15 08:18:22;;;;;;;3.83;1.58;;;;;;;39.36;23.96;98965.09;4993005;28;20456;-64
2021/06/15 08:20:53;;;;;;;3.55;1.30;;;;;;;38.47;24.31;98970.66;4993359;28;20041;-67
2021/06/15 08:23:19;;;;;;;3.42;1.73;;;;;;;39.23;23.14;98977.91;4993643;28;20042;-68
2021/06/15 08:25:45;;;;;;;3.30;1.58;;;;;;;39.55;23.62;98972.50;4993605;28;20388;-67
2021/06/15 08:28:11;;;;;;;5.18;1.63;;;;;;;40.19;23.55;98974.88;4994540;28;20033;-66
2021/06/15 08:30:37;;;;;;;3.85;1.48;;;;;;;40.33;23.00;98970.53;4994463;28;20038;-65
2021/06/15 08:33:03;;;;;;;1.63;1.00;;;;;;;40.19;22.67;98965.56;4994043;28;20495;-65
2021/06/15 08:35:28;;;;;;;2.33;1.25;;;;;;;40.85;22.32;98973.88;4993714;28;20033;-65
2021/06/15 08:37:53;;;;;;;3.63;1.15;;;;;;;41.47;21.70;98970.69;5006316;28;20653;-64
2021/06/15 08:40:19;;;;;;;3.38;1.58;;;;;;;40.86;22.00;98956.47;4977810;28;20373;-66
2021/06/15 08:42:45;;;;;;;4.93;1.40;;;;;;;41.52;21.13;98970.28;4995183;28;20037;-68
2021/06/15 08:45:14;;;;;;;4.05;1.42;;;;;;;41.69;20.94;98971.50;4993892;28;20060;-67
2021/06/15 08:47:46;;;;;;;4.55;1.33;;;;;;;41.44;21.33;98968.66;4994425;28;20109;-68
2021/06/15 08:50:17;;;;;;;3.67;1.55;;;;;;;41.55;20.25;98971.50;5007883;28;20026;-67
2021/06/15 08:52:45;;;;;;;2.60;1.27;;;;;;;41.29;20.72;98965.00;4994154;28;20033;-66
2021/06/15 08:55:11;;;;;;;3.97;1.43;;;;;;;40.76;21.21;98960.09;4984628;28;20066;-68
2021/06/15 08:57:38;;;;;;;3.92;1.30;;;;;;;41.12;20.85;98960.16;4994158;28;20030;-67
2021/06/15 09:00:06;;;;;;;4.20;1.37;;;;;;;41.04;20.91;98964.19;4992311;28;20050;-68
2021/06/15 09:02:40;;;;;;;4.15;1.20;;;;;;;41.12;20.95;98955.31;4993978;28;20530;-65
2021/06/15 09:05:05;;;;;;;4.32;1.20;;;;;;;41.23;20.59;98960.16;4994068;28;20038;-66
2021/06/15 09:07:56;;;;;;;2.88;1.15;;;;;;;40.55;21.23;98962.88;4993162;28;20102;-65
2021/06/15 09:10:26;;;;;;;1.55;1.17;;;;;;;42.50;20.38;98960.25;4993230;28;20030;-66
2021/06/15 09:12:52;;;;;;;3.58;1.67;;;;;;;41.90;19.77;98958.47;4974608;28;20117;-68
2021/06/15 09:15:19;;;;;;;3.67;1.50;;;;;;;41.29;20.73;98959.34;4983129;28;20113;-67
2021/06/15 09:17:46;;;;;;;6.35;1.40;;;;;;;41.40;20.50;98959.34;4992989;28;20773;-67
2021/06/15 09:20:19;;;;;;;2.93;1.30;;;;;;;41.76;19.95;98959.28;4994059;28;20491;-67
2021/06/15 09:22:44;;;;;;;4.20;1.50;;;;;;;42.27;19.04;98960.75;4993343;28;20041;-66
2021/06/15 09:25:15;;;;;;;3.63;1.15;;;;;;;41.53;20.03;98946.38;4986964;28;20385;-67
2021/06/15 09:27:41;;;;;;;3.33;1.27;;;;;;;42.05;19.00;98954.34;4993777;28;20022;-67
2021/06/15 09:30:12;;;;;;;3.42;1.10;;;;;;;41.39;19.82;98957.72;4993673;28;20030;-66
2021/06/15 09:32:41;;;;;;;2.65;1.30;;;;;;;41.01;20.24;98948.00;4991836;28;20061;-67
2021/06/15 09:35:11;;;;;;;4.28;1.15;;;;;;;40.82;19.74;98952.00;4992820;28;20033;-66
2021/06/15 09:37:49;;;;;;;2.92;1.10;;;;;;;40.10;20.07;98946.09;4992172;28;20022;-66
2021/06/15 09:40:27;;;;;;;1.73;1.15;;;;;;;38.90;21.47;98956.19;4989745;28;20393;-66
2021/06/15 09:43:04;;;;;;;2.45;1.25;;;;;;;39.35;21.19;98957.78;4992663;28;20050;-67
2021/06/15 09:45:38;;;;;;;3.80;1.27;;;;;;;39.95;20.58;98962.22;4990720;28;20504;-67
2021/06/15 09:48:22;;;;;;;3.15;1.10;;;;;;;39.87;20.17;98960.56;4992936;28;20633;-68
2021/06/15 09:50:49;;;;;;;3.35;1.17;;;;;;;39.99;19.80;98967.94;4993332;28;20481;-68
2021/06/15 09:53:32;;;;;;;4.90;1.20;;;;;;;39.34;20.57;98961.03;4993509;28;20445;-68
2021/06/15 09:56:00;;;;;;;4.57;1.27;;;;;;;39.24;21.88;98943.53;4990746;28;20033;-66
2021/06/15 09:58:38;;;;;;;;;;;;;;;39.56;21.32;98959.13;4985704;28;20029;-64
2021/06/15 10:01:04;;;;;;;2.75;1.25;;;;;;;40.94;20.60;98962.97;4993361;28;20005;-64
2021/06/15 10:03:29;;;;;;;2.10;1.30;;;;;;;40.59;19.70;98963.72;4992891;28;20449;-66
2021/06/15 10:05:55;;;;;;;3.15;1.23;;;;;;;40.42;20.59;98960.41;4992426;28;20340;-66
2021/06/15 10:08:20;;;;;;;2.93;1.37;;;;;;;40.23;20.47;98961.56;4990168;28;20516;-66
2021/06/15 10:10:47;;;;;;;2.43;1.50;;;;;;;39.32;20.35;98947.22;4991021;28;20376;-65
2021/06/15 10:13:12;;;;;;;4.53;1.30;;;;;;;39.81;20.77;98954.47;4991596;28;20022;-65
2021/06/15 10:15:40;;;;;;;3.50;1.48;;;;;;;41.21;19.50;98957.72;4992181;28;20538;-65
2021/06/15 10:18:07;;;;;;;2.58;1.10;;;;;;;40.48;20.76;98955.16;4992711;28;20493;-65
2021/06/15 10:20:34;;;;;;;1.60;1.10;;;;;;;40.82;20.91;98957.69;4992542;28;20072;-65
2021/06/15 10:23:00;;;;;;;5.07;0.90;;;;;;;41.96;20.03;98954.00;4973354;28;20026;-66
2021/06/15 10:25:31;;;;;;;4.15;1.40;;;;;;;41.52;19.79;98950.41;4982315;28;20121;-66
2021/06/15 10:27:58;;;;;;;3.05;1.20;;;;;;;41.11;20.32;98956.53;4992045;28;20447;-66
2021/06/15 10:30:35;;;;;;;4.40;1.48;;;;;;;41.86;18.40;98952.75;4990657;28;20034;-65
2021/06/15 10:33:13;;;;;;;1.35;1.00;;;;;;;40.36;20.06;98952.72;4992618;28;20088;-65
2021/06/15 10:35:44;;;;;;;;;;;;;;;40.57;20.09;98943.44;4992766;28;20026;-68
2021/06/15 10:38:12;;;;;;;2.38;1.23;;;;;;;40.91;20.99;98941.09;4992428;28;19914;-67
2021/06/15 10:40:40;;;;;;;2.22;1.10;;;;;;;41.69;20.54;98925.25;4991119;28;20554;-65
2021/06/15 10:43:26;;;;;;;2.92;1.35;;;;;;;40.79;20.60;98932.97;4988251;28;20049;-65
2021/06/15 10:45:56;;;;;;;2.03;1.20;;;;;;;41.75;19.96;98932.09;4991044;28;20062;-65
2021/06/15 10:48:21;;;;;;;2.63;1.17;;;;;;;42.11;19.51;98940.53;4986249;28;20741;-65
2021/06/15 10:50:49;;;;;;;2.87;1.63;;;;;;;40.47;20.16;98936.53;4988992;28;20045;-66
2021/06/15 10:53:16;;;;;;;6.47;1.65;;;;;;;41.73;19.77;98931.69;4988926;28;20041;-66
2021/06/15 10:55:46;;;;;;;2.40;1.20;;;;;;;42.56;18.88;98932.19;4988458;28;20030;-66
2021/06/15 10:58:16;;;;;;;3.70;1.40;;;;;;;42.21;19.76;98923.41;4987139;28;20423;-66
2021/06/15 11:00:52;;;;;;;5.30;1.52;;;;;;;41.90;19.49;98933.69;4987338;28;20088;-66
2021/06/15 11:03:23;;;;;;;4.97;1.47;;;;;;;42.48;19.20;98925.72;4988069;28;20040;-65
2021/06/15 11:05:59;;;;;;;22.58;3.58;;;;;;;42.51;18.75;98919.19;4986200;28;20031;-65
2021/06/15 11:08:30;;;;;;;2.70;1.17;;;;;;;40.95;20.43;98922.00;4989208;28;20034;-67
2021/06/15 11:11:19;;;;;;;2.88;1.20;;;;;;;42.39;19.34;98923.31;4988623;28;20483;-65
2021/06/15 11:13:56;;;;;;;2.45;1.42;;;;;;;41.59;20.06;98899.28;4986348;28;20072;-69
2021/06/15 11:16:40;;;;;;;7.22;1.80;;;;;;;42.22;19.11;98924.22;4988226;28;20030;-69
2021/06/15 11:19:12;;;;;;;4.53;1.42;;;;;;;40.49;21.00;98926.41;4990267;28;20026;-69
2021/06/15 11:21:43;;;;;;;4.05;1.30;;;;;;;40.57;21.12;98921.56;4991138;28;20037;-68
2021/06/15 11:24:19;;;;;;;15.65;1.90;;;;;;;40.13;21.03;98928.28;4989396;28;20085;-67
2021/06/15 11:26:47;;;;;;;14.18;1.92;;;;;;;41.05;21.08;98932.56;4988598;28;20030;-69
2021/06/15 11:29:30;;;;;;;2.55;0.93;;;;;;;41.81;20.53;98924.78;4988452;28;20128;-68
2021/06/15 11:32:14;;;;;;;9.38;1.70;;;;;;;42.49;19.73;98915.16;4989059;28;20117;-68
2021/06/15 11:34:41;;;;;;;3.53;1.20;;;;;;;42.23;19.45;98925.84;4988585;28;20026;-68
2021/06/15 11:37:23;;;;;;;1.23;1.00;;;;;;;41.56;19.86;98905.78;4988749;28;20026;-68
2021/06/15 11:39:50;;;;;;;3.55;1.27;;;;;;;41.72;19.23;98918.72;4982417;28;20041;-69
2021/06/15 11:42:24;;;;;;;5.47;1.30;;;;;;;41.66;19.30;98920.34;4988205;28;20044;-67
2021/06/15 11:44:55;;;;;;;4.53;1.35;;;;;;;41.65;20.01;98913.88;4986682;28;20072;-68